Webcam Flughafen St.Gallen-Altenrhein

Live-Bilder und Zeitraffer LSZR / ACH.

 

Live aus Altenrhein
LIVE
LSZR 240850Z AUTO VRB03KT CAVOK 09/04 Q1024
Zeitraffer heute
2019-03-24 00:14:07
LSZR 232250Z AUTO 19001KT CAVOK 04/00 Q1026
Zeitraffer gestern
2019-03-23 00:14:04
LSZR 222250Z AUTO VRB02KT CAVOK 03/01 Q1028
Zeitraffer vor 3 Tagen
2019-03-21 00:14:24
LSZR 202250Z AUTO VRB01KT CAVOK 01/M01 Q1033